createdAt,value
2022-12-18T00:01:18.136Z,-3.89
2022-12-18T00:03:45.472Z,-3.89
2022-12-18T00:06:12.873Z,-3.89
2022-12-18T00:08:39.594Z,-3.88
2022-12-18T00:11:11.434Z,-3.89
2022-12-18T00:13:38.290Z,-3.85
2022-12-18T00:16:10.529Z,-3.86
2022-12-18T00:18:38.179Z,-3.84
2022-12-18T00:21:07.729Z,-3.83
2022-12-18T00:23:36.034Z,-3.82
2022-12-18T00:26:04.929Z,-3.79
2022-12-18T00:28:31.561Z,-3.78
2022-12-18T00:31:06.583Z,-3.77
2022-12-18T00:33:33.205Z,-3.75
2022-12-18T00:36:04.354Z,-3.73
2022-12-18T00:38:31.071Z,-3.73
2022-12-18T00:40:57.540Z,-3.72
2022-12-18T00:43:24.202Z,-3.71
2022-12-18T00:45:50.859Z,-3.68
2022-12-18T00:48:17.376Z,-3.67
2022-12-18T00:50:43.913Z,-3.64
2022-12-18T00:53:13.405Z,-3.62
2022-12-18T00:55:43.151Z,-3.64
2022-12-18T00:58:11.002Z,-3.61
2022-12-18T01:00:39.049Z,-3.67
2022-12-18T01:03:06.691Z,-3.66
2022-12-18T01:05:33.758Z,-3.65
2022-12-18T01:08:00.852Z,-3.64
2022-12-18T01:10:27.659Z,-3.64
2022-12-18T01:12:54.179Z,-3.62
2022-12-18T01:15:21.325Z,-3.64
2022-12-18T01:17:47.816Z,-3.67
2022-12-18T01:20:14.394Z,-3.63
2022-12-18T01:22:41.052Z,-3.63
2022-12-18T01:25:08.238Z,-3.63
2022-12-18T01:27:35.318Z,-3.62
2022-12-18T01:30:01.845Z,-3.64
2022-12-18T01:32:31.855Z,-3.62
2022-12-18T01:34:58.473Z,-3.63
2022-12-18T01:37:25.420Z,-3.60
2022-12-18T01:39:55.377Z,-3.60
2022-12-18T01:42:22.542Z,-3.59
2022-12-18T01:45:01.152Z,-3.59
2022-12-18T01:47:46.193Z,-3.59
2022-12-18T01:50:14.885Z,-3.60
2022-12-18T01:52:49.932Z,-3.62
2022-12-18T01:55:21.502Z,-3.62
2022-12-18T01:57:49.200Z,-3.61
2022-12-18T02:00:19.161Z,-3.62
2022-12-18T02:02:47.179Z,-3.63
2022-12-18T02:05:17.576Z,-3.62
2022-12-18T02:07:48.009Z,-3.60
2022-12-18T02:10:25.441Z,-3.60
2022-12-18T02:13:15.990Z,-3.61
2022-12-18T02:16:12.647Z,-3.61
2022-12-18T02:18:45.453Z,-3.61
2022-12-18T02:21:33.595Z,-3.63
2022-12-18T02:24:12.464Z,-3.63
2022-12-18T02:26:46.547Z,-3.62
2022-12-18T02:29:17.597Z,-3.62
2022-12-18T02:31:48.857Z,-3.61
2022-12-18T02:34:17.441Z,-3.63
2022-12-18T02:36:46.261Z,-3.60
2022-12-18T02:39:15.856Z,-3.61
2022-12-18T02:41:43.148Z,-3.61
2022-12-18T02:44:13.024Z,-3.62
2022-12-18T02:46:44.434Z,-3.61
2022-12-18T02:49:23.054Z,-3.59
2022-12-18T02:51:58.788Z,-3.56
2022-12-18T02:55:07.419Z,-3.56
2022-12-18T02:57:49.403Z,-3.55
2022-12-18T03:00:21.292Z,-3.56
2022-12-18T03:02:58.359Z,-3.54
2022-12-18T03:05:42.895Z,-3.55
2022-12-18T03:08:22.040Z,-3.56
2022-12-18T03:11:00.700Z,-3.55
2022-12-18T03:13:38.014Z,-3.53
2022-12-18T03:16:07.455Z,-3.50
2022-12-18T03:18:40.203Z,-3.50
2022-12-18T03:21:09.041Z,-3.50
2022-12-18T03:23:41.520Z,-3.52
2022-12-18T03:26:11.289Z,-3.49
2022-12-18T03:28:43.387Z,-3.51
2022-12-18T03:31:13.469Z,-3.50
2022-12-18T03:34:14.390Z,-3.48
2022-12-18T03:36:41.228Z,-3.47
2022-12-18T03:39:07.923Z,-3.43
2022-12-18T03:41:42.286Z,-3.40
2022-12-18T03:44:37.070Z,-3.40
2022-12-18T03:47:11.046Z,-3.37
2022-12-18T03:50:04.415Z,-3.38
2022-12-18T03:52:39.293Z,-3.35
2022-12-18T03:55:08.314Z,-3.34
2022-12-18T03:57:35.103Z,-3.35
2022-12-18T04:00:22.061Z,-3.35
2022-12-18T04:02:55.261Z,-3.34
2022-12-18T04:05:25.555Z,-3.33
2022-12-18T04:07:53.423Z,-3.31
2022-12-18T04:10:20.031Z,-3.29
2022-12-18T04:12:46.530Z,-3.28
2022-12-18T04:15:13.931Z,-3.25
2022-12-18T04:17:48.295Z,-3.23
2022-12-18T04:20:14.735Z,-3.21
2022-12-18T04:22:41.194Z,-3.21
2022-12-18T04:25:08.175Z,-3.23
2022-12-18T04:27:35.069Z,-3.23
2022-12-18T04:30:01.956Z,-3.22
2022-12-18T04:32:28.465Z,-3.22
2022-12-18T04:34:54.910Z,-3.22
2022-12-18T04:37:21.362Z,-3.22
2022-12-18T04:39:47.898Z,-3.23
2022-12-18T04:42:14.345Z,-3.23
2022-12-18T04:44:40.787Z,-3.27
2022-12-18T04:47:09.233Z,-3.28
2022-12-18T04:49:35.684Z,-3.30
2022-12-18T04:52:02.281Z,-3.29
2022-12-18T04:54:28.850Z,-3.30
2022-12-18T04:56:55.300Z,-3.30
2022-12-18T04:59:21.847Z,-3.32
2022-12-18T05:01:48.695Z,-3.34
2022-12-18T05:04:15.386Z,-3.36
2022-12-18T05:06:42.004Z,-3.39
2022-12-18T05:09:08.874Z,-3.40
2022-12-18T05:11:36.172Z,-3.43
2022-12-18T05:14:02.678Z,-3.46
2022-12-18T05:16:29.315Z,-3.48
2022-12-18T05:18:55.919Z,-3.50
2022-12-18T05:21:22.486Z,-3.54
2022-12-18T05:23:48.982Z,-3.53
2022-12-18T05:26:18.387Z,-3.56
2022-12-18T05:28:45.370Z,-3.57
2022-12-18T05:31:12.328Z,-3.58
2022-12-18T05:33:39.431Z,-3.62
2022-12-18T05:36:08.641Z,-3.62
2022-12-18T05:38:37.853Z,-3.65
2022-12-18T05:41:05.166Z,-3.67
2022-12-18T05:43:31.813Z,-3.67
2022-12-18T05:45:58.596Z,-3.69
2022-12-18T05:48:25.058Z,-3.70
2022-12-18T05:50:52.007Z,-3.70
2022-12-18T05:53:20.557Z,-3.73
2022-12-18T05:55:47.799Z,-3.73
2022-12-18T05:58:15.544Z,-3.75
2022-12-18T06:00:44.672Z,-3.76
2022-12-18T06:03:12.272Z,-3.77
2022-12-18T06:05:45.289Z,-3.76
2022-12-18T06:08:13.212Z,-3.77
2022-12-18T06:10:40.739Z,-3.81
2022-12-18T06:13:08.008Z,-3.81
2022-12-18T06:15:37.841Z,-3.81
2022-12-18T06:18:04.547Z,-3.82
2022-12-18T06:20:33.629Z,-3.82
2022-12-18T06:23:00.490Z,-3.85
2022-12-18T06:25:27.174Z,-3.85
2022-12-18T06:27:53.659Z,-3.85
2022-12-18T06:30:20.608Z,-3.86
2022-12-18T06:32:51.796Z,-3.87
2022-12-18T06:35:22.840Z,-3.89
2022-12-18T06:37:49.494Z,-3.91
2022-12-18T06:40:15.972Z,-3.92
2022-12-18T06:42:42.446Z,-3.95
2022-12-18T06:45:09.385Z,-3.97
2022-12-18T06:47:35.885Z,-4.00
2022-12-18T06:50:02.394Z,-4.02
2022-12-18T06:52:29.265Z,-4.03
2022-12-18T06:54:55.685Z,-4.04
2022-12-18T06:57:22.324Z,-4.06
2022-12-18T06:59:48.772Z,-4.09
2022-12-18T07:02:15.589Z,-4.11
2022-12-18T07:04:42.221Z,-4.12
2022-12-18T07:07:08.667Z,-4.16
2022-12-18T07:09:35.167Z,-4.18
2022-12-18T07:12:01.658Z,-4.18
2022-12-18T07:14:28.108Z,-4.21
2022-12-18T07:16:54.930Z,-4.21
2022-12-18T07:19:21.939Z,-4.20
2022-12-18T07:21:48.377Z,-4.20
2022-12-18T07:24:15.330Z,-4.18
2022-12-18T07:26:42.120Z,-4.19
2022-12-18T07:29:09.099Z,-4.18
2022-12-18T07:31:35.612Z,-4.19
2022-12-18T07:34:02.372Z,-4.20
2022-12-18T07:36:28.906Z,-4.19
2022-12-18T07:38:55.428Z,-4.21
2022-12-18T07:41:22.132Z,-4.18
2022-12-18T07:43:50.224Z,-4.19
2022-12-18T07:46:17.269Z,-4.17
2022-12-18T07:48:45.563Z,-4.15
2022-12-18T07:51:18.485Z,-4.13
2022-12-18T07:53:45.282Z,-4.13
2022-12-18T07:56:30.565Z,-4.10
2022-12-18T07:58:58.830Z,-4.06
2022-12-18T08:01:25.569Z,-4.02
2022-12-18T08:03:52.715Z,-3.97
2022-12-18T08:06:22.411Z,-3.95
2022-12-18T08:08:55.425Z,-3.89
2022-12-18T08:11:24.271Z,-3.83
2022-12-18T08:13:51.090Z,-3.76
2022-12-18T08:16:18.381Z,-3.68
2022-12-18T08:18:45.029Z,-3.58
2022-12-18T08:21:16.157Z,-3.51
2022-12-18T08:23:43.853Z,-3.41
2022-12-18T08:26:12.042Z,-3.33
2022-12-18T08:28:38.655Z,-3.24
2022-12-18T08:31:05.628Z,-3.17
2022-12-18T08:33:33.060Z,-3.12
2022-12-18T08:36:00.605Z,-3.07
2022-12-18T08:38:27.258Z,-3.01
2022-12-18T08:41:05.313Z,-2.95
2022-12-18T08:43:50.541Z,-2.86
2022-12-18T08:46:18.096Z,-2.79
2022-12-18T08:48:44.836Z,-2.75
2022-12-18T08:51:11.475Z,-2.69
2022-12-18T08:53:39.138Z,-2.64
2022-12-18T08:56:06.452Z,-2.57
2022-12-18T08:58:32.912Z,-2.57
2022-12-18T09:01:05.000Z,-2.53
2022-12-18T09:03:32.512Z,-2.46
2022-12-18T09:05:59.107Z,-2.39
2022-12-18T09:08:25.594Z,-2.38
2022-12-18T09:10:52.211Z,-2.31
2022-12-18T09:13:19.030Z,-2.30
2022-12-18T09:15:48.206Z,-2.26
2022-12-18T09:18:17.584Z,-2.22
2022-12-18T09:20:45.028Z,-2.25
2022-12-18T09:23:12.207Z,-2.21
2022-12-18T09:25:39.199Z,-2.11
2022-12-18T09:28:10.909Z,-1.97
2022-12-18T09:30:42.306Z,-1.79
2022-12-18T09:33:08.983Z,-1.78
2022-12-18T09:35:42.575Z,-1.66
2022-12-18T09:38:12.608Z,-1.49
2022-12-18T09:40:50.281Z,-1.46
2022-12-18T09:43:36.314Z,-1.33
2022-12-18T09:46:07.379Z,-1.22
2022-12-18T09:48:38.259Z,-1.10
2022-12-18T09:51:13.439Z,-1.00
2022-12-18T09:53:45.773Z,-0.99
2022-12-18T09:56:19.782Z,-0.98
2022-12-18T09:58:53.199Z,-0.91
2022-12-18T10:01:24.102Z,-0.96
2022-12-18T10:03:52.717Z,-0.87
2022-12-18T10:06:33.702Z,-0.81
2022-12-18T10:09:03.088Z,-0.79
2022-12-18T10:11:41.439Z,-0.72
2022-12-18T10:14:22.641Z,-0.69
2022-12-18T10:17:07.366Z,-0.58
2022-12-18T10:19:55.492Z,-0.52
2022-12-18T10:22:51.271Z,-0.49
2022-12-18T10:25:26.453Z,-0.38
2022-12-18T10:27:57.422Z,-0.41
2022-12-18T10:30:25.901Z,-0.46
2022-12-18T10:32:52.627Z,-0.37
2022-12-18T10:35:23.317Z,-0.30
2022-12-18T10:38:22.780Z,-0.21
2022-12-18T10:40:57.297Z,-0.14
2022-12-18T10:43:27.001Z,-0.21
2022-12-18T10:46:08.906Z,-0.20
2022-12-18T10:48:57.845Z,-0.33
2022-12-18T10:51:31.669Z,-0.27
2022-12-18T10:54:06.356Z,-0.29
2022-12-18T10:56:36.028Z,-0.29
2022-12-18T10:59:05.960Z,-0.29
2022-12-18T11:01:51.620Z,-0.29
2022-12-18T11:04:24.230Z,-0.33
2022-12-18T11:06:56.566Z,-0.30
2022-12-18T11:09:25.525Z,-0.28
2022-12-18T11:11:54.910Z,-0.25
2022-12-18T11:14:46.883Z,-0.27
2022-12-18T11:17:31.412Z,-0.23
2022-12-18T11:20:00.375Z,-0.19
2022-12-18T11:22:31.366Z,-0.17
2022-12-18T11:25:30.717Z,-0.16
2022-12-18T11:28:01.627Z,-0.11
2022-12-18T11:30:31.458Z,-0.05
2022-12-18T11:33:04.070Z,-0.06
2022-12-18T11:35:49.588Z,-0.02
2022-12-18T11:38:23.795Z,-0.03
2022-12-18T11:40:57.467Z,-0.03
2022-12-18T11:43:34.859Z,-0.08
2022-12-18T11:46:19.341Z,-0.06
2022-12-18T11:48:53.171Z,-0.00
2022-12-18T11:51:31.071Z,-0.04
2022-12-18T11:53:57.723Z,0.01
2022-12-18T11:56:33.120Z,-0.02
2022-12-18T11:59:16.656Z,0.02
2022-12-18T12:01:59.924Z,0.04
2022-12-18T12:04:29.871Z,0.04
2022-12-18T12:07:13.811Z,0.08
2022-12-18T12:10:16.529Z,0.06
2022-12-18T12:13:11.672Z,0.10
2022-12-18T12:16:04.394Z,0.12
2022-12-18T12:18:46.001Z,0.05
2022-12-18T12:21:24.512Z,0.06
2022-12-18T12:24:06.431Z,0.11
2022-12-18T12:26:55.916Z,0.11
2022-12-18T12:29:30.231Z,0.13
2022-12-18T12:32:21.445Z,0.11
2022-12-18T12:35:07.750Z,0.08
2022-12-18T12:38:06.554Z,0.07
2022-12-18T12:40:52.670Z,0.05
2022-12-18T12:43:27.961Z,0.07
2022-12-18T12:46:01.675Z,0.11
2022-12-18T12:48:51.114Z,0.07
2022-12-18T12:51:29.356Z,0.06
2022-12-18T12:53:58.396Z,0.08
2022-12-18T12:56:35.964Z,0.07
2022-12-18T12:59:35.104Z,0.04
2022-12-18T13:02:24.177Z,0.05
2022-12-18T13:05:02.510Z,0.01
2022-12-18T13:07:36.329Z,-0.02
2022-12-18T13:10:20.882Z,0.02
2022-12-18T13:12:58.436Z,0.01
2022-12-18T13:15:38.571Z,-0.00
2022-12-18T13:18:12.592Z,-0.01
2022-12-18T13:20:52.285Z,0.00
2022-12-18T13:23:24.703Z,0.02
2022-12-18T13:26:07.665Z,0.01
2022-12-18T13:28:37.473Z,0.01
2022-12-18T13:31:04.256Z,-0.04
2022-12-18T13:33:30.867Z,-0.06
2022-12-18T13:36:31.159Z,-0.07
2022-12-18T13:39:10.191Z,-0.04
2022-12-18T13:41:36.682Z,-0.04
2022-12-18T13:44:14.017Z,-0.05
2022-12-18T13:46:46.735Z,-0.08
2022-12-18T13:49:13.168Z,-0.05
2022-12-18T13:51:47.662Z,-0.07
2022-12-18T13:54:36.116Z,-0.07
2022-12-18T13:57:04.095Z,-0.05
2022-12-18T13:59:41.012Z,-0.06
2022-12-18T14:02:17.706Z,-0.08
2022-12-18T14:04:47.505Z,-0.07
2022-12-18T14:07:17.976Z,-0.05
2022-12-18T14:09:50.043Z,-0.05
2022-12-18T14:12:41.440Z,-0.03
2022-12-18T14:15:37.686Z,-0.05
2022-12-18T14:18:27.590Z,-0.05
2022-12-18T14:20:58.457Z,-0.07
2022-12-18T14:23:38.777Z,-0.09
2022-12-18T14:26:22.235Z,-0.13
2022-12-18T14:28:49.404Z,-0.15
2022-12-18T14:31:20.809Z,-0.13
2022-12-18T14:33:47.687Z,-0.10
2022-12-18T14:36:18.973Z,-0.13
2022-12-18T14:38:50.311Z,-0.14
2022-12-18T14:41:18.525Z,-0.13
2022-12-18T14:43:47.507Z,-0.15
2022-12-18T14:46:38.066Z,-0.16
2022-12-18T14:49:20.488Z,-0.14
2022-12-18T14:51:53.821Z,-0.18
2022-12-18T14:54:22.443Z,-0.16
2022-12-18T14:56:57.975Z,-0.17
2022-12-18T14:59:27.246Z,-0.15
2022-12-18T15:02:02.473Z,-0.17
2022-12-18T15:04:32.714Z,-0.16
2022-12-18T15:07:17.416Z,-0.17
2022-12-18T15:10:01.352Z,-0.20
2022-12-18T15:12:44.696Z,-0.19
2022-12-18T15:15:40.429Z,-0.21
2022-12-18T15:18:11.433Z,-0.23
2022-12-18T15:20:49.677Z,-0.23
2022-12-18T15:23:47.237Z,-0.20
2022-12-18T15:26:16.777Z,-0.23
2022-12-18T15:28:52.028Z,-0.22
2022-12-18T15:31:18.515Z,-0.25
2022-12-18T15:34:01.786Z,-0.26
2022-12-18T15:36:28.666Z,-0.28
2022-12-18T15:38:59.504Z,-0.25
2022-12-18T15:41:37.583Z,-0.28
2022-12-18T15:44:22.394Z,-0.29
2022-12-18T15:46:49.758Z,-0.30
2022-12-18T15:49:16.331Z,-0.31
2022-12-18T15:51:43.356Z,-0.32
2022-12-18T15:54:15.065Z,-0.35
2022-12-18T15:57:00.273Z,-0.33
2022-12-18T15:59:27.462Z,-0.35
2022-12-18T16:01:54.389Z,-0.34
2022-12-18T16:04:22.757Z,-0.35
2022-12-18T16:09:38.045Z,-0.36
2022-12-18T16:12:04.943Z,-0.37
2022-12-18T16:14:32.421Z,-0.39
2022-12-18T16:17:01.860Z,-0.41
2022-12-18T16:19:29.850Z,-0.38
2022-12-18T16:21:58.263Z,-0.39
2022-12-18T16:24:30.410Z,-0.37
2022-12-18T16:27:00.212Z,-0.37
2022-12-18T16:29:28.736Z,-0.36
2022-12-18T16:31:56.100Z,-0.37
2022-12-18T16:34:35.700Z,-0.39
2022-12-18T16:37:08.333Z,-0.41
2022-12-18T16:39:35.931Z,-0.43
2022-12-18T16:42:17.528Z,-0.42
2022-12-18T16:44:44.615Z,-0.42
2022-12-18T16:47:13.257Z,-0.41
2022-12-18T16:49:42.064Z,-0.41
2022-12-18T16:52:08.578Z,-0.45
2022-12-18T16:54:36.831Z,-0.48
2022-12-18T16:57:05.494Z,-0.48
2022-12-18T16:59:32.099Z,-0.48
2022-12-18T17:01:58.731Z,-0.49
2022-12-18T17:04:25.427Z,-0.49
2022-12-18T17:06:53.854Z,-0.49
2022-12-18T17:09:25.178Z,-0.51
2022-12-18T17:11:53.242Z,-0.52
2022-12-18T17:14:22.169Z,-0.53
2022-12-18T17:17:07.221Z,-0.56
2022-12-18T17:19:35.746Z,-0.56
2022-12-18T17:22:02.575Z,-0.56
2022-12-18T17:24:34.530Z,-0.58
2022-12-18T17:27:02.330Z,-0.60
2022-12-18T17:29:28.913Z,-0.59
2022-12-18T17:31:55.419Z,-0.57
2022-12-18T17:34:23.676Z,-0.60
2022-12-18T17:36:50.281Z,-0.60
2022-12-18T17:39:20.061Z,-0.61
2022-12-18T17:41:46.912Z,-0.61
2022-12-18T17:44:13.421Z,-0.63
2022-12-18T17:46:40.189Z,-0.63
2022-12-18T17:49:06.824Z,-0.63
2022-12-18T17:51:33.928Z,-0.63
2022-12-18T17:54:00.647Z,-0.64
2022-12-18T17:56:27.356Z,-0.65
2022-12-18T17:58:54.153Z,-0.65
2022-12-18T18:01:23.882Z,-0.65
2022-12-18T18:03:53.521Z,-0.62
2022-12-18T18:06:20.973Z,-0.63
2022-12-18T18:08:48.116Z,-0.66
2022-12-18T18:11:36.937Z,-0.64
2022-12-18T18:14:06.441Z,-0.66
2022-12-18T18:16:44.613Z,-0.68
2022-12-18T18:19:15.433Z,-0.70
2022-12-18T18:21:43.919Z,-0.65
2022-12-18T18:24:13.116Z,-0.65
2022-12-18T18:26:41.656Z,-0.65
2022-12-18T18:29:10.852Z,-0.63
2022-12-18T18:31:40.820Z,-0.64
2022-12-18T18:34:08.889Z,-0.64
2022-12-18T18:36:35.532Z,-0.63
2022-12-18T18:39:02.292Z,-0.64
2022-12-18T18:41:30.609Z,-0.67
2022-12-18T18:43:58.453Z,-0.67
2022-12-18T18:46:25.873Z,-0.68
2022-12-18T18:48:52.662Z,-0.69
2022-12-18T18:51:20.671Z,-0.68
2022-12-18T18:53:50.784Z,-0.69
2022-12-18T18:56:56.173Z,-0.67
2022-12-18T18:59:06.519Z,-0.66
2022-12-18T19:01:33.366Z,-0.67
2022-12-18T19:04:02.486Z,-0.64
2022-12-18T19:06:29.792Z,-0.65
2022-12-18T19:08:57.625Z,-0.66
2022-12-18T19:11:44.532Z,-0.66
2022-12-18T19:14:14.871Z,-0.64
2022-12-18T19:16:42.441Z,-0.63
2022-12-18T19:19:09.552Z,-0.64
2022-12-18T19:21:38.259Z,-0.67
2022-12-18T19:24:05.583Z,-0.68
2022-12-18T19:26:32.566Z,-0.66
2022-12-18T19:29:07.912Z,-0.68
2022-12-18T19:31:36.983Z,-0.66
2022-12-18T19:34:07.071Z,-0.67
2022-12-18T19:36:36.720Z,-0.65
2022-12-18T19:39:10.296Z,-0.64
2022-12-18T19:41:36.932Z,-0.62
2022-12-18T19:44:07.671Z,-0.61
2022-12-18T19:46:35.704Z,-0.60
2022-12-18T19:49:03.048Z,-0.58
2022-12-18T19:51:31.371Z,-0.56
2022-12-18T19:54:01.466Z,-0.55
2022-12-18T19:56:32.271Z,-0.53
2022-12-18T19:59:00.244Z,-0.50
2022-12-18T20:01:28.903Z,-0.54
2022-12-18T20:03:57.627Z,-0.55
2022-12-18T20:06:33.001Z,-0.55
2022-12-18T20:09:02.694Z,-0.52
2022-12-18T20:11:32.944Z,-0.53
2022-12-18T20:14:02.221Z,-0.49
2022-12-18T20:16:29.433Z,-0.47
2022-12-18T20:18:57.680Z,-0.46
2022-12-18T20:21:25.499Z,-0.46
2022-12-18T20:23:52.716Z,-0.46
2022-12-18T20:26:19.475Z,-0.44
2022-12-18T20:28:46.372Z,-0.44
2022-12-18T20:31:14.165Z,-0.45
2022-12-18T20:33:42.521Z,-0.44
2022-12-18T20:36:16.001Z,-0.46
2022-12-18T20:38:45.647Z,-0.46
2022-12-18T20:41:18.908Z,-0.47
2022-12-18T20:43:45.920Z,-0.46
2022-12-18T20:46:14.816Z,-0.45
2022-12-18T20:48:42.446Z,-0.44
2022-12-18T20:51:20.594Z,-0.43
2022-12-18T20:53:47.654Z,-0.43
2022-12-18T20:56:21.587Z,-0.42
2022-12-18T20:58:50.040Z,-0.44
2022-12-18T21:01:19.831Z,-0.44
2022-12-18T21:03:47.582Z,-0.44
2022-12-18T21:06:16.882Z,-0.39
2022-12-18T21:08:44.044Z,-0.39
2022-12-18T21:11:35.150Z,-0.43
2022-12-18T21:14:03.919Z,-0.41
2022-12-18T21:16:30.677Z,-0.41
2022-12-18T21:18:57.549Z,-0.39
2022-12-18T21:21:26.590Z,-0.38
2022-12-18T21:23:53.985Z,-0.41
2022-12-18T21:26:22.209Z,-0.37
2022-12-18T21:28:53.379Z,-0.39
2022-12-18T21:31:20.013Z,-0.39
2022-12-18T21:33:46.629Z,-0.38
2022-12-18T21:36:14.886Z,-0.38
2022-12-18T21:38:41.529Z,-0.38
2022-12-18T21:41:10.314Z,-0.37
2022-12-18T21:43:55.970Z,-0.35
2022-12-18T21:46:22.894Z,-0.33
2022-12-18T21:48:49.499Z,-0.32
2022-12-18T21:51:16.231Z,-0.30
2022-12-18T21:53:43.086Z,-0.30
2022-12-18T21:56:09.676Z,-0.29
2022-12-18T21:58:37.928Z,-0.30
2022-12-18T22:01:05.298Z,-0.30
2022-12-18T22:03:32.262Z,-0.30
2022-12-18T22:06:08.863Z,-0.32
2022-12-18T22:08:36.148Z,-0.30
2022-12-18T22:11:08.238Z,-0.28
2022-12-18T22:13:34.924Z,-0.28
2022-12-18T22:16:01.531Z,-0.27
2022-12-18T22:18:28.693Z,-0.26
2022-12-18T22:21:05.852Z,-0.26
2022-12-18T22:23:33.367Z,-0.28
2022-12-18T22:26:00.161Z,-0.31
2022-12-18T22:28:45.026Z,-0.29
2022-12-18T22:31:11.809Z,-0.26
2022-12-18T22:33:38.566Z,-0.27
2022-12-18T22:36:06.878Z,-0.29
2022-12-18T22:38:33.889Z,-0.28
2022-12-18T22:41:00.473Z,-0.28
2022-12-18T22:43:26.999Z,-0.25
2022-12-18T22:45:53.994Z,-0.25
2022-12-18T22:48:21.283Z,-0.24
2022-12-18T22:50:47.964Z,-0.23
2022-12-18T22:53:16.683Z,-0.21
2022-12-18T22:55:43.262Z,-0.21
2022-12-18T22:58:09.883Z,-0.19
2022-12-18T23:00:37.248Z,-0.17
2022-12-18T23:03:04.167Z,-0.17
2022-12-18T23:05:33.797Z,-0.12
2022-12-18T23:08:00.979Z,-0.13
2022-12-18T23:10:27.921Z,-0.13
2022-12-18T23:12:54.640Z,-0.11
2022-12-18T23:15:27.253Z,-0.09
2022-12-18T23:17:58.596Z,-0.10
2022-12-18T23:20:27.331Z,-0.09
2022-12-18T23:22:54.249Z,-0.04
2022-12-18T23:25:20.779Z,-0.03
2022-12-18T23:27:47.393Z,-0.05
2022-12-18T23:30:14.131Z,-0.02
2022-12-18T23:32:41.279Z,-0.02
2022-12-18T23:35:08.318Z,0.01
2022-12-18T23:37:58.967Z,0.03
2022-12-18T23:40:23.264Z,0.03
2022-12-18T23:42:50.175Z,0.04
2022-12-18T23:45:18.062Z,0.05
2022-12-18T23:47:45.443Z,0.05
2022-12-18T23:50:15.171Z,0.06
2022-12-18T23:52:41.918Z,0.08
2022-12-18T23:55:11.521Z,0.08
2022-12-18T23:57:38.424Z,0.07
